Time;durP1;ratioP1;P1;durP2;ratioP2;P2;SDS_P1;SDS_P2;PMS_P1;PMS_P2;Temp;Humidity;BMP_temperature;BMP_pressure;BME280_temperature;BME280_humidity;BME280_pressure;Samples;Min_cycle;Max_cycle;Signal;HPM_P1;HPM_P2
2023/04/11 00:00:41;;;;;;;4.30;1.27;;;8.00;99.90;;;;;;7402962;19;20265;-77
2023/04/11 00:03:10;;;;;;;8.13;1.33;;;7.90;99.90;;;;;;7401792;19;19929;-76
2023/04/11 00:05:39;;;;;;;3.20;1.08;;;7.80;99.90;;;;;;7399161;19;19930;-76
2023/04/11 00:08:09;;;;;;;6.00;1.15;;;7.90;99.90;;;;;;7402153;19;19929;-76
2023/04/11 00:10:40;;;;;;;3.60;1.50;;;7.80;99.90;;;;;;7400660;19;19999;-76
2023/04/11 00:13:09;;;;;;;5.95;0.90;;;7.80;99.90;;;;;;7401893;19;19933;-76
2023/04/11 00:15:39;;;;;;;2.33;0.45;;;7.70;99.90;;;;;;7402901;19;19923;-76
2023/04/11 00:18:08;;;;;;;1.30;0.40;;;7.80;99.90;;;;;;7402619;19;19922;-77
2023/04/11 00:20:37;;;;;;;2.58;0.60;;;7.70;99.90;;;;;;7399660;19;19918;-76
2023/04/11 00:23:07;;;;;;;5.45;0.80;;;7.70;99.90;;;;;;7393073;19;19926;-77
2023/04/11 00:25:36;;;;;;;2.92;0.88;;;7.60;99.90;;;;;;7392553;19;20336;-76
2023/04/11 00:28:12;;;;;;;4.20;1.10;;;7.70;99.90;;;;;;7397518;19;19922;-77
2023/04/11 00:30:41;;;;;;;3.15;0.88;;;7.50;99.90;;;;;;7399471;19;19945;-76
2023/04/11 00:33:11;;;;;;;2.17;0.65;;;7.60;99.90;;;;;;7400559;19;20248;-77
2023/04/11 00:35:40;;;;;;;2.88;0.93;;;7.80;99.90;;;;;;7397841;19;19929;-76
2023/04/11 00:38:09;;;;;;;3.80;0.85;;;7.70;99.90;;;;;;7400200;19;19928;-75
2023/04/11 00:40:38;;;;;;;5.07;0.88;;;7.50;99.90;;;;;;7398987;19;19946;-76
2023/04/11 00:43:10;;;;;;;4.25;0.60;;;8.40;99.90;;;;;;7399220;19;19918;-76
2023/04/11 00:45:38;;;;;;;3.85;0.60;;;7.70;99.90;;;;;;7401177;19;19926;-76
2023/04/11 00:48:08;;;;;;;4.05;1.10;;;7.60;99.90;;;;;;7399804;19;19939;-76
2023/04/11 00:50:41;;;;;;;5.53;0.85;;;7.80;99.90;;;;;;7397038;19;19930;-75
2023/04/11 00:53:12;;;;;;;1.50;0.80;;;7.60;99.90;;;;;;7400513;19;19959;-75
2023/04/11 00:55:41;;;;;;;4.25;0.80;;;7.80;99.90;;;;;;7400381;19;19922;-76
2023/04/11 00:58:13;;;;;;;1.33;0.52;;;7.70;99.90;;;;;;7396779;19;19930;-76
2023/04/11 01:00:41;;;;;;;2.17;0.93;;;8.30;99.90;;;;;;7398738;19;19929;-76
2023/04/11 01:03:11;;;;;;;3.88;1.10;;;7.60;99.90;;;;;;7400327;19;20008;-75
2023/04/11 01:05:41;;;;;;;1.60;0.80;;;7.60;99.90;;;;;;7398350;19;19937;-75
2023/04/11 01:08:10;;;;;;;1.23;0.52;;;7.60;99.90;;;;;;7399357;19;19922;-76
2023/04/11 01:10:40;;;;;;;2.00;0.47;;;7.80;99.90;;;;;;7398652;19;20353;-75
2023/04/11 01:13:13;;;;;;;3.53;0.63;;;7.40;99.90;;;;;;7408877;19;19923;-75
2023/04/11 01:15:43;;;;;;;5.78;0.70;;;7.40;99.90;;;;;;7405976;19;19926;-75
2023/04/11 01:18:12;;;;;;;1.60;0.50;;;7.30;99.90;;;;;;7406345;19;20000;-76
2023/04/11 01:20:41;;;;;;;5.50;0.82;;;7.40;99.90;;;;;;7405413;19;19953;-76
2023/04/11 01:23:12;;;;;;;1.77;0.63;;;7.10;99.90;;;;;;7405877;19;20007;-76
2023/04/11 01:25:44;;;;;;;6.47;0.90;;;7.20;99.90;;;;;;7406535;19;20488;-76
2023/04/11 01:28:13;;;;;;;3.10;0.60;;;7.00;99.90;;;;;;7403761;19;20664;-76
2023/04/11 01:30:42;;;;;;;4.65;1.13;;;7.10;99.90;;;;;;7403046;19;20573;-75
2023/04/11 01:33:12;;;;;;;1.73;0.95;;;6.90;99.90;;;;;;7404848;19;19918;-75
2023/04/11 01:35:41;;;;;;;3.83;0.68;;;6.90;99.90;;;;;;7405807;19;19922;-76
2023/04/11 01:38:10;;;;;;;2.47;0.60;;;6.90;99.90;;;;;;7405726;19;19918;-75
2023/04/11 01:40:43;;;;;;;5.97;1.42;;;7.40;99.90;;;;;;7405807;19;19922;-76
2023/04/11 01:43:12;;;;;;;2.70;1.08;;;6.90;99.90;;;;;;7404568;19;19982;-75
2023/04/11 01:45:42;;;;;;;3.75;1.00;;;7.10;99.90;;;;;;7406603;19;19986;-75
2023/04/11 01:48:12;;;;;;;4.75;0.90;;;7.00;99.90;;;;;;7405756;19;19946;-75
2023/04/11 01:50:41;;;;;;;3.42;0.85;;;6.90;99.90;;;;;;7402383;19;20407;-76
2023/04/11 01:53:11;;;;;;;2.40;0.82;;;7.00;99.90;;;;;;7406175;19;20265;-76
2023/04/11 01:55:45;;;;;;;4.55;0.80;;;6.90;99.90;;;;;;7405918;19;19934;-76
2023/04/11 01:58:14;;;;;;;2.30;0.70;;;7.00;99.90;;;;;;7408003;19;19919;-76
2023/04/11 02:00:44;;;;;;;3.95;1.00;;;6.90;99.90;;;;;;7406631;19;19914;-75
2023/04/11 02:03:13;;;;;;;5.07;0.90;;;7.00;99.90;;;;;;7404940;19;19922;-75
2023/04/11 02:05:43;;;;;;;4.25;0.70;;;6.90;99.90;;;;;;7406740;19;19935;-75
2023/04/11 02:08:13;;;;;;;10.68;1.30;;;6.90;99.90;;;;;;7404323;19;19914;-75
2023/04/11 02:10:44;;;;;;;5.90;1.00;;;7.70;99.90;;;;;;7404159;19;19922;-76
2023/04/11 02:13:13;;;;;;;6.55;1.15;;;7.80;99.90;;;;;;7403753;19;19918;-76
2023/04/11 02:15:42;;;;;;;2.25;0.73;;;6.80;99.90;;;;;;7407420;19;19933;-76
2023/04/11 02:18:11;;;;;;;4.35;0.90;;;6.90;99.90;;;;;;7404597;19;19925;-76
2023/04/11 02:20:41;;;;;;;3.58;1.40;;;6.90;99.90;;;;;;7404183;19;19925;-76
2023/04/11 02:23:11;;;;;;;4.82;1.00;;;7.00;99.90;;;;;;7403243;19;19918;-75
2023/04/11 02:25:40;;;;;;;3.03;1.10;;;7.40;99.90;;;;;;7404574;19;20546;-75
2023/04/11 02:28:12;;;;;;;6.05;1.25;;;7.80;99.90;;;;;;7404281;19;20292;-76
2023/04/11 02:30:41;;;;;;;4.90;1.67;;;6.90;99.90;;;;;;7404120;19;19929;-76
2023/04/11 02:33:12;;;;;;;6.78;2.17;;;7.30;99.90;;;;;;7404569;19;19960;-75
2023/04/11 02:35:43;;;;;;;5.13;1.02;;;6.70;99.90;;;;;;7403924;19;20260;-75
2023/04/11 02:38:12;;;;;;;3.33;0.73;;;6.80;99.90;;;;;;7405166;19;19922;-75
2023/04/11 02:40:41;;;;;;;5.25;1.58;;;6.80;99.90;;;;;;7404593;19;19930;-77
2023/04/11 02:43:16;;;;;;;2.63;1.02;;;6.90;99.90;;;;;;7402302;19;19935;-77
2023/04/11 02:45:45;;;;;;;5.25;0.95;;;6.90;99.90;;;;;;7404682;19;20598;-77
2023/04/11 02:48:14;;;;;;;3.47;1.08;;;6.80;99.90;;;;;;7404946;19;19953;-76
2023/04/11 02:50:43;;;;;;;3.28;1.00;;;6.80;99.90;;;;;;7402169;19;19930;-75
2023/04/11 02:53:12;;;;;;;5.03;0.90;;;7.40;99.90;;;;;;7402727;19;19934;-76
2023/04/11 02:55:42;;;;;;;4.05;1.10;;;6.70;99.90;;;;;;7405561;19;19935;-76
2023/04/11 02:58:16;;;;;;;2.20;0.68;;;7.60;99.90;;;;;;7403947;19;19984;-76
2023/04/11 03:00:48;;;;;;;3.25;0.82;;;6.90;99.90;;;;;;7404447;19;20371;-76
2023/04/11 03:03:17;;;;;;;;;;;6.90;99.90;;;;;;7405664;19;19947;-76
2023/04/11 03:05:46;;;;;;;5.93;1.10;;;7.00;99.90;;;;;;7404596;19;19986;-76
2023/04/11 03:08:15;;;;;;;4.55;1.23;;;7.10;99.90;;;;;;7404102;19;20005;-76
2023/04/11 03:10:44;;;;;;;4.78;0.77;;;7.00;99.90;;;;;;7401864;19;19942;-76
2023/04/11 03:13:13;;;;;;;4.50;1.10;;;7.50;99.90;;;;;;7401749;19;19926;-76
2023/04/11 03:15:42;;;;;;;4.80;1.05;;;6.80;99.90;;;;;;7401982;19;19959;-76
2023/04/11 03:18:14;;;;;;;4.20;1.05;;;7.90;99.90;;;;;;7403153;19;19939;-77
2023/04/11 03:20:43;;;;;;;3.85;1.42;;;7.90;99.90;;;;;;7404833;19;19922;-76
2023/04/11 03:23:12;;;;;;;4.85;0.80;;;6.70;99.90;;;;;;7402154;19;20356;-76
2023/04/11 03:25:43;;;;;;;3.08;0.75;;;7.80;99.90;;;;;;7404839;19;20516;-77
2023/04/11 03:28:12;;;;;;;4.90;1.00;;;6.80;99.90;;;;;;7401229;19;19922;-77
2023/04/11 03:30:42;;;;;;;2.17;0.45;;;6.70;99.90;;;;;;7401718;19;20390;-77
2023/04/11 03:33:14;;;;;;;1.98;0.52;;;6.70;99.90;;;;;;7402552;19;19922;-77
2023/04/11 03:35:43;;;;;;;5.93;0.80;;;6.80;99.90;;;;;;7401268;19;19925;-76
2023/04/11 03:38:19;;;;;;;1.23;0.73;;;6.70;99.90;;;;;;7403190;19;20671;-77
2023/04/11 03:40:48;;;;;;;4.20;0.73;;;6.60;99.90;;;;;;7401242;19;19918;-76
2023/04/11 03:43:18;;;;;;;0.80;0.38;;;6.70;99.90;;;;;;7402860;19;19926;-77
2023/04/11 03:45:47;;;;;;;0.93;0.55;;;6.80;99.90;;;;;;7402947;19;19926;-76
2023/04/11 03:48:18;;;;;;;2.53;0.50;;;6.70;99.90;;;;;;7403045;19;19928;-77
2023/04/11 03:50:47;;;;;;;1.73;0.30;;;6.60;99.90;;;;;;7400675;19;19986;-76
2023/04/11 03:53:16;;;;;;;1.45;0.45;;;6.70;99.90;;;;;;7403803;19;20268;-77
2023/04/11 03:55:45;;;;;;;1.45;0.50;;;6.60;99.90;;;;;;7403197;19;19939;-77
2023/04/11 03:58:14;;;;;;;2.92;0.77;;;6.50;99.90;;;;;;7398480;19;19935;-76
2023/04/11 04:00:43;;;;;;;1.60;0.60;;;6.70;99.90;;;;;;7401548;19;20004;-77
2023/04/11 04:03:13;;;;;;;2.70;0.68;;;6.70;99.90;;;;;;7400960;19;19914;-77
2023/04/11 04:05:45;;;;;;;3.15;0.63;;;6.70;99.90;;;;;;7400238;19;19911;-77
2023/04/11 04:08:15;;;;;;;3.65;1.15;;;6.70;99.90;;;;;;7398881;19;20256;-77
2023/04/11 04:10:48;;;;;;;4.35;0.70;;;6.60;99.90;;;;;;7401512;19;19929;-77
2023/04/11 04:13:17;;;;;;;3.42;0.75;;;6.70;99.90;;;;;;7400020;19;19927;-75
2023/04/11 04:15:46;;;;;;;3.10;0.85;;;7.00;99.90;;;;;;7402074;19;19984;-75
2023/04/11 04:18:16;;;;;;;1.25;0.52;;;6.80;99.90;;;;;;7400887;19;19939;-76
2023/04/11 04:20:48;;;;;;;2.97;0.70;;;6.70;99.90;;;;;;7401715;19;19963;-75
2023/04/11 04:23:16;;;;;;;2.55;0.55;;;6.60;99.90;;;;;;7398367;19;19933;-76
2023/04/11 04:25:49;;;;;;;2.20;0.55;;;6.70;99.90;;;;;;7401974;19;19934;-76
2023/04/11 04:28:21;;;;;;;4.57;0.70;;;6.60;99.90;;;;;;7400658;19;20335;-76
2023/04/11 04:30:53;;;;;;;3.20;0.40;;;7.70;99.90;;;;;;7399132;19;19919;-76
2023/04/11 04:33:23;;;;;;;2.50;0.65;;;6.70;99.90;;;;;;7401621;19;20364;-76
2023/04/11 04:35:56;;;;;;;1.00;0.60;;;6.80;99.90;;;;;;7403074;19;19922;-76
2023/04/11 04:38:27;;;;;;;4.75;0.85;;;6.80;99.90;;;;;;7400275;19;19918;-76
2023/04/11 04:40:56;;;;;;;1.25;0.63;;;6.70;99.90;;;;;;7401807;19;19926;-76
2023/04/11 04:43:31;;;;;;;3.10;0.90;;;6.70;99.90;;;;;;7401800;19;20292;-76
2023/04/11 04:46:00;;;;;;;6.57;1.00;;;6.70;99.90;;;;;;7398968;19;19919;-76
2023/04/11 04:48:29;;;;;;;5.75;0.90;;;6.80;99.90;;;;;;7400552;19;19918;-77
2023/04/11 04:51:00;;;;;;;3.92;1.08;;;6.60;99.90;;;;;;7398377;19;20441;-76
2023/04/11 04:53:33;;;;;;;7.57;0.95;;;6.70;99.90;;;;;;7399728;19;20240;-76
2023/04/11 04:56:02;;;;;;;3.72;1.17;;;6.60;99.90;;;;;;7400172;19;19918;-76
2023/04/11 04:58:31;;;;;;;3.28;1.05;;;7.30;99.90;;;;;;7398872;19;19954;-76
2023/04/11 05:01:01;;;;;;;4.13;0.90;;;6.70;99.90;;;;;;7394246;19;19915;-77
2023/04/11 05:03:33;;;;;;;4.28;0.90;;;6.70;99.90;;;;;;7398195;19;19926;-76
2023/04/11 05:06:05;;;;;;;5.80;1.27;;;6.70;99.90;;;;;;7399431;19;20346;-76
2023/04/11 05:08:34;;;;;;;;;;;6.60;99.90;;;;;;7401400;19;19923;-76
2023/04/11 05:11:03;;;;;;;2.95;0.85;;;6.80;99.90;;;;;;7397877;19;19922;-77
2023/04/11 05:13:35;;;;;;;4.93;1.75;;;6.80;99.90;;;;;;7399788;19;19929;-77
2023/04/11 05:16:04;;;;;;;6.28;1.00;;;6.80;99.90;;;;;;7400888;19;20332;-76
2023/04/11 05:18:33;;;;;;;6.32;1.20;;;6.70;99.90;;;;;;7400841;19;19923;-76
2023/04/11 05:21:05;;;;;;;3.22;1.00;;;6.80;99.90;;;;;;7397802;19;19930;-77
2023/04/11 05:23:34;;;;;;;5.68;1.50;;;6.80;99.90;;;;;;7398611;19;19990;-76
2023/04/11 05:26:03;;;;;;;4.13;1.50;;;6.90;99.90;;;;;;7399127;19;19939;-76
2023/04/11 05:28:32;;;;;;;4.18;1.05;;;7.40;99.90;;;;;;7394294;19;20021;-76
2023/04/11 05:31:01;;;;;;;5.47;1.65;;;6.80;99.90;;;;;;7397697;19;19978;-76
2023/04/11 05:33:32;;;;;;;4.95;1.40;;;7.40;99.90;;;;;;7401183;19;19918;-76
2023/04/11 05:36:04;;;;;;;4.55;1.40;;;6.90;99.90;;;;;;7398796;19;19919;-76
2023/04/11 05:38:34;;;;;;;7.85;1.20;;;6.80;99.90;;;;;;7400260;19;19938;-76
2023/04/11 05:41:03;;;;;;;7.28;1.77;;;7.20;99.90;;;;;;7398048;19;20291;-76
2023/04/11 05:43:32;;;;;;;5.32;1.63;;;6.80;99.90;;;;;;7398915;19;19990;-75
2023/04/11 05:46:06;;;;;;;5.40;1.50;;;6.90;99.90;;;;;;7398593;19;20611;-76
2023/04/11 05:48:36;;;;;;;4.18;1.35;;;6.90;99.90;;;;;;7399461;19;20379;-76
2023/04/11 05:51:09;;;;;;;2.63;1.30;;;6.80;99.90;;;;;;7397638;19;19926;-76
2023/04/11 05:53:38;;;;;;;6.38;1.95;;;5.50;99.90;;;;;;7397835;19;19930;-75
2023/04/11 05:56:08;;;;;;;7.10;1.65;;;7.10;99.90;;;;;;7395797;19;19952;-75
2023/04/11 05:58:39;;;;;;;4.78;1.88;;;5.30;99.90;;;;;;7405603;19;19998;-76
2023/04/11 06:01:11;;;;;;;8.18;1.77;;;7.20;99.90;;;;;;7399461;19;20391;-75
2023/04/11 06:03:40;;;;;;;9.50;1.77;;;7.00;99.90;;;;;;7405149;19;19929;-76
2023/04/11 06:06:14;;;;;;;3.55;1.35;;;7.00;99.90;;;;;;7404475;19;19946;-76
2023/04/11 06:08:43;;;;;;;6.43;1.70;;;7.90;99.90;;;;;;7405424;19;19938;-76
2023/04/11 06:11:12;;;;;;;6.40;1.65;;;6.90;99.90;;;;;;7399943;19;20891;-76
2023/04/11 06:13:41;;;;;;;7.63;2.00;;;7.00;99.90;;;;;;7403410;19;19922;-76
2023/04/11 06:16:11;;;;;;;8.70;1.88;;;7.40;99.90;;;;;;7404310;19;19933;-75
2023/04/11 06:18:40;;;;;;;7.40;1.75;;;7.00;99.90;;;;;;7405223;19;19922;-75
2023/04/11 06:21:09;;;;;;;7.13;2.25;;;6.70;99.90;;;;;;7404744;19;19914;-75
2023/04/11 06:23:40;;;;;;;11.75;2.30;;;6.80;99.90;;;;;;7402929;19;19929;-76
2023/04/11 06:26:10;;;;;;;7.25;1.67;;;7.40;99.90;;;;;;7404312;19;19939;-75
2023/04/11 06:28:39;;;;;;;6.75;1.50;;;8.00;99.90;;;;;;7403111;19;19922;-75
2023/04/11 06:31:10;;;;;;;9.50;1.95;;;6.90;99.90;;;;;;7402324;19;19926;-75
2023/04/11 06:33:39;;;;;;;5.20;1.58;;;8.10;99.90;;;;;;7405345;19;19955;-75
2023/04/11 06:36:10;;;;;;;6.25;1.70;;;7.80;99.90;;;;;;7404642;19;20287;-75
2023/04/11 06:38:42;;;;;;;3.72;1.08;;;7.00;99.90;;;;;;7403389;19;20007;-75
2023/04/11 06:41:11;;;;;;;4.55;1.77;;;7.00;99.90;;;;;;7402717;19;19943;-75
2023/04/11 06:43:39;;;;;;;3.70;1.35;;;7.00;99.90;;;;;;7404442;19;19914;-76
2023/04/11 06:46:10;;;;;;;4.40;1.25;;;7.10;99.90;;;;;;7404983;19;19929;-76
2023/04/11 06:48:39;;;;;;;5.38;1.50;;;6.80;99.90;;;;;;7402510;19;19927;-75
2023/04/11 06:51:09;;;;;;;8.32;1.48;;;6.20;99.90;;;;;;7404129;19;19978;-76
2023/04/11 06:53:41;;;;;;;7.05;1.42;;;6.90;99.90;;;;;;7402616;19;19937;-76
2023/04/11 06:56:11;;;;;;;8.05;1.60;;;7.30;99.90;;;;;;7402489;19;19978;-75
2023/04/11 06:58:40;;;;;;;6.57;1.67;;;6.90;99.90;;;;;;7401547;19;19919;-77
2023/04/11 07:01:10;;;;;;;6.13;1.60;;;7.80;99.90;;;;;;7404086;19;19927;-77
2023/04/11 07:03:38;;;;;;;4.45;1.48;;;7.00;99.90;;;;;;7404378;19;20287;-76
2023/04/11 07:06:09;;;;;;;3.50;1.50;;;6.90;99.90;;;;;;7404068;19;20384;-77
2023/04/11 07:08:40;;;;;;;7.35;1.73;;;6.80;99.90;;;;;;7401323;19;19924;-76
2023/04/11 07:11:10;;;;;;;4.53;1.45;;;7.00;99.90;;;;;;7402324;19;19929;-77
2023/04/11 07:13:39;;;;;;;5.40;1.58;;;7.50;99.90;;;;;;7404417;19;19945;-77
2023/04/11 07:16:08;;;;;;;9.32;1.58;;;6.80;99.90;;;;;;7402534;19;19919;-76
2023/04/11 07:18:37;;;;;;;9.45;1.45;;;7.00;99.90;;;;;;7401362;19;20058;-77
2023/04/11 07:21:07;;;;;;;6.38;1.88;;;7.00;99.90;;;;;;7401710;19;19922;-75
2023/04/11 07:23:36;;;;;;;11.60;1.80;;;7.00;99.90;;;;;;7400150;19;19942;-74
2023/04/11 07:26:09;;;;;;;7.68;1.85;;;5.00;99.90;;;;;;7401106;19;20354;-75
2023/04/11 07:28:39;;;;;;;4.10;1.95;;;7.10;99.90;;;;;;7402349;19;19915;-74
2023/04/11 07:31:09;;;;;;;6.72;1.83;;;7.10;99.90;;;;;;7401634;19;19926;-75
2023/04/11 07:33:38;;;;;;;6.95;1.60;;;7.30;99.90;;;;;;7403568;19;19922;-75
2023/04/11 07:36:09;;;;;;;5.97;1.50;;;7.80;99.90;;;;;;7402803;19;19934;-74
2023/04/11 07:38:38;;;;;;;7.55;1.77;;;7.50;99.90;;;;;;7401684;19;19918;-74
2023/04/11 07:41:11;;;;;;;7.80;1.77;;;7.50;99.90;;;;;;7399714;19;20245;-74
2023/04/11 07:43:40;;;;;;;4.88;1.35;;;7.40;99.90;;;;;;7400694;19;19927;-74
2023/04/11 07:46:10;;;;;;;5.10;1.25;;;7.30;99.90;;;;;;7401202;19;19922;-74
2023/04/11 07:48:39;;;;;;;4.03;1.27;;;7.40;99.90;;;;;;7400950;19;19922;-74
2023/04/11 07:51:08;;;;;;;4.30;1.25;;;7.30;99.90;;;;;;7403504;19;19918;-74
2023/04/11 07:53:38;;;;;;;5.93;1.75;;;7.20;99.90;;;;;;7402526;19;19922;-74
2023/04/11 07:56:10;;;;;;;9.07;2.03;;;7.30;99.90;;;;;;7400710;19;20362;-76
2023/04/11 07:58:39;;;;;;;3.72;0.98;;;7.50;99.90;;;;;;7403334;19;20058;-74
2023/04/11 08:01:09;;;;;;;5.53;1.70;;;7.40;99.90;;;;;;7400993;19;19915;-75
2023/04/11 08:03:38;;;;;;;7.28;1.60;;;7.60;99.90;;;;;;7404479;19;19939;-75
2023/04/11 08:06:08;;;;;;;3.97;1.13;;;7.60;99.90;;;;;;7404206;19;20339;-74
2023/04/11 08:08:37;;;;;;;7.88;1.15;;;7.50;99.90;;;;;;7400538;19;20373;-74
2023/04/11 08:11:06;;;;;;;7.88;1.35;;;7.60;99.90;;;;;;7400193;19;19954;-75
2023/04/11 08:13:38;;;;;;;10.50;1.60;;;7.70;99.90;;;;;;7400580;19;19914;-74
2023/04/11 08:16:10;;;;;;;6.63;1.45;;;8.20;99.90;;;;;;7402329;19;19927;-74
2023/04/11 08:18:40;;;;;;;3.08;1.05;;;7.70;99.90;;;;;;7401344;19;19919;-74
2023/04/11 08:21:11;;;;;;;6.13;1.30;;;7.80;99.90;;;;;;7399672;19;19928;-75
2023/04/11 08:23:41;;;;;;;8.40;1.48;;;7.80;99.90;;;;;;7399356;19;19927;-75
2023/04/11 08:26:12;;;;;;;5.10;1.30;;;7.90;99.90;;;;;;7402751;19;19946;-75
2023/04/11 08:28:43;;;;;;;7.30;1.70;;;8.10;99.90;;;;;;7398888;19;19952;-76
2023/04/11 08:31:12;;;;;;;6.78;1.33;;;8.00;99.90;;;;;;7402913;19;20352;-75
2023/04/11 08:33:41;;;;;;;5.45;1.00;;;7.90;99.90;;;;;;7396238;19;19943;-74
2023/04/11 08:36:11;;;;;;;2.22;0.60;;;7.40;99.90;;;;;;7398417;19;19922;-74
2023/04/11 08:38:41;;;;;;;6.10;1.02;;;7.10;99.90;;;;;;7401984;19;19933;-75
2023/04/11 08:41:10;;;;;;;2.05;0.80;;;7.00;99.90;;;;;;7399590;19;19925;-74
2023/04/11 08:43:44;;;;;;;5.03;1.13;;;7.50;99.90;;;;;;7401213;19;19922;-76
2023/04/11 08:46:13;;;;;;;2.92;0.88;;;6.80;99.90;;;;;;7397673;19;19915;-76
2023/04/11 08:48:42;;;;;;;2.85;1.25;;;7.80;99.90;;;;;;7398765;19;20367;-75
2023/04/11 08:51:11;;;;;;;4.15;1.35;;;7.00;99.90;;;;;;7400330;19;19918;-76
2023/04/11 08:53:41;;;;;;;7.38;1.45;;;7.10;99.90;;;;;;7400308;19;19933;-76
2023/04/11 08:56:17;;;;;;;1.98;0.70;;;7.30;99.90;;;;;;7401201;19;19919;-75
2023/04/11 08:58:49;;;;;;;3.08;1.65;;;7.40;99.90;;;;;;7400617;19;19949;-76
2023/04/11 09:01:32;;;;;;;5.22;1.30;;;7.30;99.90;;;;;;7400793;19;19926;-75
2023/04/11 09:04:03;;;;;;;5.72;1.58;;;7.50;99.90;;;;;;7401946;19;19919;-76
2023/04/11 09:06:33;;;;;;;6.60;1.30;;;7.60;99.90;;;;;;7401191;19;20244;-75
2023/04/11 09:09:06;;;;;;;6.32;1.52;;;8.00;99.90;;;;;;7400090;19;20272;-75
2023/04/11 09:11:54;;;;;;;9.98;1.75;;;7.60;99.90;;;;;;7398594;19;19978;-75
2023/04/11 09:14:27;;;;;;;5.55;1.42;;;7.60;99.90;;;;;;7401282;19;20409;-75
2023/04/11 09:16:59;;;;;;;6.30;2.05;;;7.70;99.90;;;;;;7398395;19;19927;-76
2023/04/11 09:19:38;;;;;;;7.50;1.20;;;7.60;99.90;;;;;;7398620;19;19918;-75
2023/04/11 09:22:08;;;;;;;6.30;1.42;;;7.80;99.90;;;;;;7398984;19;19925;-75
2023/04/11 09:24:38;;;;;;;6.50;0.98;;;7.80;99.90;;;;;;7396897;19;19915;-75
2023/04/11 09:27:11;;;;;;;4.07;1.30;;;8.00;99.90;;;;;;7396724;19;20677;-77
2023/04/11 09:29:44;;;;;;;7.10;1.40;;;8.20;99.90;;;;;;7397522;19;20282;-73
2023/04/11 09:32:29;;;;;;;2.72;1.13;;;8.30;99.90;;;;;;7400866;19;19918;-75
2023/04/11 09:35:10;;;;;;;4.28;1.00;;;8.20;99.90;;;;;;7406131;19;19918;-74
2023/04/11 09:37:47;;;;;;;1.73;0.57;;;8.10;99.90;;;;;;7405990;19;19949;-76
2023/04/11 09:40:19;;;;;;;2.92;0.63;;;8.00;99.90;;;;;;7401184;19;19923;-74
2023/04/11 09:42:49;;;;;;;2.60;0.50;;;7.80;99.90;;;;;;7404888;19;19919;-74
2023/04/11 09:45:22;;;;;;;2.65;0.80;;;7.50;99.90;;;;;;7404991;19;19931;-72
2023/04/11 09:47:53;;;;;;;5.72;0.93;;;7.50;99.90;;;;;;7405883;19;19930;-73
2023/04/11 09:50:22;;;;;;;3.38;0.65;;;8.40;99.90;;;;;;7401274;19;19927;-75
2023/04/11 09:52:51;;;;;;;4.78;1.10;;;7.90;99.90;;;;;;7401340;19;19949;-73
2023/04/11 09:55:22;;;;;;;3.85;0.88;;;7.90;99.90;;;;;;7402274;19;19922;-74
2023/04/11 09:57:53;;;;;;;4.63;1.00;;;8.00;99.90;;;;;;7406706;19;19998;-74
2023/04/11 10:00:28;;;;;;;6.43;1.05;;;7.90;99.90;;;;;;7403883;19;19914;-73
2023/04/11 10:02:58;;;;;;;5.53;1.02;;;7.90;99.90;;;;;;7407997;19;19919;-78
2023/04/11 10:05:28;;;;;;;3.17;1.35;;;8.10;99.90;;;;;;7401324;19;19925;-75
2023/04/11 10:08:03;;;;;;;3.45;1.13;;;8.10;99.90;;;;;;7406952;19;19926;-76
2023/04/11 10:10:32;;;;;;;4.25;0.98;;;8.30;99.90;;;;;;7403185;19;19926;-76
2023/04/11 10:13:02;;;;;;;2.90;0.80;;;8.60;99.90;;;;;;7403221;19;19982;-75
2023/04/11 10:15:33;;;;;;;2.40;1.00;;;9.00;99.90;;;;;;7404737;19;19915;-76
2023/04/11 10:18:12;;;;;;;3.28;0.90;;;8.90;99.90;;;;;;7405441;19;19930;-75
2023/04/11 10:20:47;;;;;;;1.23;0.38;;;8.90;99.90;;;;;;7404028;19;20348;-77
2023/04/11 10:23:16;;;;;;;5.68;0.85;;;8.60;99.90;;;;;;7405034;19;19927;-75
2023/04/11 10:25:57;;;;;;;6.20;0.85;;;8.40;99.90;;;;;;7404560;19;19914;-75
2023/04/11 10:28:37;;;;;;;3.53;1.08;;;8.50;99.90;;;;;;7402431;19;19922;-75
2023/04/11 10:31:12;;;;;;;5.15;1.05;;;9.30;99.90;;;;;;7404055;19;20240;-76
2023/04/11 10:34:02;;;;;;;4.40;1.90;;;9.00;99.90;;;;;;7401808;19;20260;-75
2023/04/11 10:37:08;;;;;;;4.32;0.77;;;9.00;99.90;;;;;;7405053;19;19930;-75
2023/04/11 10:39:52;;;;;;;;;;;8.10;99.90;;;;;;7406227;19;19958;-74
2023/04/11 10:42:28;;;;;;;1.50;0.68;;;7.70;99.90;;;;;;7404122;19;20336;-73
2023/04/11 10:45:38;;;;;;;3.67;0.82;;;7.40;99.90;;;;;;7399270;19;20304;-72
2023/04/11 10:48:12;;;;;;;2.63;0.63;;;7.20;99.90;;;;;;7403690;19;19922;-71
2023/04/11 10:50:43;;;;;;;2.60;0.60;;;7.10;99.90;;;;;;7401946;19;19930;-72
2023/04/11 10:53:32;;;;;;;4.32;0.80;;;7.50;99.90;;;;;;7401438;19;19925;-73
2023/04/11 10:56:02;;;;;;;1.63;0.60;;;7.10;99.90;;;;;;7402309;19;19918;-71
2023/04/11 10:58:39;;;;;;;5.20;1.55;;;7.20;99.90;;;;;;7402647;19;20324;-73
2023/04/11 11:01:19;;;;;;;4.10;1.58;;;7.90;99.90;;;;;;7401331;19;19918;-72
2023/04/11 11:04:00;;;;;;;1.58;0.60;;;7.10;99.90;;;;;;7400685;19;19923;-73
2023/04/11 11:06:29;;;;;;;3.95;0.88;;;7.00;99.90;;;;;;7403467;19;19942;-73
2023/04/11 11:08:59;;;;;;;0.30;0.30;;;6.90;99.90;;;;;;7402648;19;19928;-73
2023/04/11 11:11:27;;;;;;;3.00;0.35;;;6.80;99.90;;;;;;7403334;19;20377;-72
2023/04/11 11:13:59;;;;;;;0.68;0.43;;;6.90;99.90;;;;;;7401728;19;19933;-72
2023/04/11 11:16:28;;;;;;;2.85;0.40;;;6.60;99.90;;;;;;7402773;19;19914;-73
2023/04/11 11:19:01;;;;;;;4.95;0.50;;;6.80;99.90;;;;;;7403141;19;19925;-74
2023/04/11 11:21:33;;;;;;;0.93;0.30;;;6.80;99.90;;;;;;7404265;19;19993;-70
2023/04/11 11:24:03;;;;;;;1.23;0.50;;;7.80;99.90;;;;;;7401917;19;19925;-71
2023/04/11 11:26:40;;;;;;;4.90;0.60;;;6.80;99.90;;;;;;7404121;19;19923;-71
2023/04/11 11:29:10;;;;;;;4.63;0.82;;;6.60;99.90;;;;;;7402146;19;19926;-72
2023/04/11 11:31:40;;;;;;;0.50;0.30;;;6.70;99.90;;;;;;7404071;19;19923;-70
2023/04/11 11:34:12;;;;;;;2.15;0.57;;;6.90;99.90;;;;;;7401048;19;19918;-70
2023/04/11 11:36:43;;;;;;;3.33;0.43;;;7.20;99.90;;;;;;7403594;19;20354;-71
2023/04/11 11:39:14;;;;;;;3.45;0.60;;;7.00;99.90;;;;;;7402849;19;19926;-71
2023/04/11 11:41:43;;;;;;;2.05;0.50;;;7.10;99.90;;;;;;7404742;19;19921;-71
2023/04/11 11:44:24;;;;;;;1.73;0.60;;;7.60;99.90;;;;;;7402370;19;19935;-71
2023/04/11 11:47:07;;;;;;;5.35;0.82;;;7.30;99.90;;;;;;7400639;19;19925;-72
2023/04/11 11:49:49;;;;;;;1.63;0.38;;;7.30;99.90;;;;;;7399250;19;19927;-72
2023/04/11 11:52:33;;;;;;;3.58;0.95;;;7.50;99.90;;;;;;7400051;19;19918;-72
2023/04/11 11:55:04;;;;;;;2.30;0.20;;;8.00;99.90;;;;;;7398825;19;19954;-71
2023/04/11 11:57:33;;;;;;;3.95;0.70;;;7.70;99.90;;;;;;7398475;19;19922;-72
2023/04/11 12:00:03;;;;;;;0.40;0.25;;;7.70;99.90;;;;;;7401809;19;20272;-72
2023/04/11 12:02:36;;;;;;;1.05;0.30;;;7.60;99.90;;;;;;7402218;19;19933;-72
2023/04/11 12:05:09;;;;;;;2.50;0.50;;;7.90;99.90;;;;;;7400180;19;20336;-72
2023/04/11 12:07:39;;;;;;;3.72;0.50;;;7.90;99.90;;;;;;7401706;19;19933;-72
2023/04/11 12:10:10;;;;;;;5.55;0.77;;;8.20;99.90;;;;;;7398174;19;19922;-72
2023/04/11 12:12:41;;;;;;;4.45;0.80;;;8.30;99.90;;;;;;7400305;19;19922;-71
2023/04/11 12:15:13;;;;;;;4.65;0.70;;;8.60;99.90;;;;;;7400676;19;19930;-72
2023/04/11 12:17:42;;;;;;;0.95;0.40;;;8.80;99.90;;;;;;7399245;19;19926;-72
2023/04/11 12:20:14;;;;;;;3.13;0.55;;;8.80;99.90;;;;;;7399908;19;19966;-72
2023/04/11 12:22:43;;;;;;;2.60;0.55;;;9.20;99.90;;;;;;7401047;19;19995;-73
2023/04/11 12:25:32;;;;;;;4.60;0.63;;;9.20;99.90;;;;;;7398175;19;19922;-73
2023/04/11 12:28:21;;;;;;;2.65;0.85;;;9.10;99.90;;;;;;7398537;19;19933;-73
2023/04/11 12:31:11;;;;;;;7.65;0.70;;;9.20;99.90;;;;;;7395014;19;20015;-74
2023/04/11 12:34:00;;;;;;;4.57;0.82;;;9.40;99.90;;;;;;7398585;19;19927;-73
2023/04/11 12:36:51;;;;;;;4.95;1.00;;;9.40;99.90;;;;;;7399052;19;19922;-72
2023/04/11 12:39:41;;;;;;;3.50;1.10;;;9.30;99.90;;;;;;7400061;19;19934;-74
2023/04/11 12:42:30;;;;;;;6.60;1.10;;;9.40;99.90;;;;;;7398614;19;19965;-73
2023/04/11 12:45:20;;;;;;;7.80;1.27;;;9.80;99.90;;;;;;7397346;19;19914;-72
2023/04/11 12:48:09;;;;;;;5.82;1.27;;;10.00;99.90;;;;;;7399136;19;20427;-73
2023/04/11 12:50:58;;;;;;;6.47;0.95;;;10.00;99.90;;;;;;7395989;19;20260;-72
2023/04/11 12:53:51;;;;;;;2.83;0.68;;;9.80;99.90;;;;;;7395814;19;19923;-72
2023/04/11 12:56:41;;;;;;;1.58;0.68;;;9.10;99.90;;;;;;7399737;19;19922;-72
2023/04/11 12:59:31;;;;;;;6.45;1.20;;;8.60;99.90;;;;;;7398523;19;19967;-72
2023/04/11 13:02:20;;;;;;;2.83;0.68;;;8.20;99.90;;;;;;7395019;19;19918;-72
2023/04/11 13:05:09;;;;;;;;;;;8.20;99.90;;;;;;7401171;19;20018;-72
2023/04/11 13:07:58;;;;;;;4.28;0.82;;;8.40;99.90;;;;;;7402273;19;20248;-73
2023/04/11 13:10:49;;;;;;;7.65;1.83;;;8.70;99.90;;;;;;7400522;19;19918;-74
2023/04/11 13:13:38;;;;;;;9.43;1.95;;;9.10;99.90;;;;;;7403385;19;19914;-73
2023/04/11 13:16:27;;;;;;;5.70;1.50;;;8.90;99.90;;;;;;7404709;19;19923;-73
2023/04/11 13:19:16;;;;;;;6.78;1.45;;;8.90;99.90;;;;;;7402925;19;20257;-73
2023/04/11 13:22:05;;;;;;;3.92;0.75;;;9.10;99.90;;;;;;7400769;19;19930;-73
2023/04/11 13:24:34;;;;;;;4.18;0.82;;;8.60;99.90;;;;;;7403439;19;19923;-73